createdAt,value
2022-08-22T00:02:06.561Z,18.00
2022-08-22T00:03:09.414Z,18.10
2022-08-22T00:04:44.232Z,18.00
2022-08-22T00:07:23.289Z,18.00
2022-08-22T00:10:01.068Z,17.90
2022-08-22T00:12:36.683Z,17.90
2022-08-22T00:15:31.587Z,17.90
2022-08-22T00:18:08.207Z,17.90
2022-08-22T00:20:43.723Z,17.90
2022-08-22T00:23:19.449Z,17.80
2022-08-22T00:25:54.787Z,17.80
2022-08-22T00:28:30.571Z,17.70
2022-08-22T00:31:03.163Z,17.70
2022-08-22T00:33:40.486Z,17.70
2022-08-22T00:36:20.102Z,17.70
2022-08-22T00:38:55.808Z,17.70
2022-08-22T00:41:35.755Z,17.70
2022-08-22T00:44:35.082Z,17.70
2022-08-22T00:47:20.076Z,17.60
2022-08-22T00:50:07.414Z,17.60
2022-08-22T00:52:59.070Z,17.60
2022-08-22T00:56:04.212Z,17.60
2022-08-22T00:59:22.924Z,17.70
2022-08-22T01:02:05.395Z,17.70
2022-08-22T01:04:50.010Z,17.70
2022-08-22T01:07:38.123Z,17.70
2022-08-22T01:10:24.897Z,17.70
2022-08-22T01:13:16.643Z,17.70
2022-08-22T01:15:45.811Z,17.70
2022-08-22T01:18:56.752Z,17.70
2022-08-22T01:22:06.780Z,17.70
2022-08-22T01:25:25.881Z,17.70
2022-08-22T01:28:37.852Z,17.70
2022-08-22T01:31:54.645Z,17.70
2022-08-22T01:34:54.499Z,17.70
2022-08-22T01:37:54.223Z,17.70
2022-08-22T01:40:58.519Z,17.70
2022-08-22T01:43:59.381Z,17.70
2022-08-22T01:46:38.267Z,17.60
2022-08-22T01:49:16.040Z,17.60
2022-08-22T01:51:51.245Z,17.60
2022-08-22T01:54:35.990Z,17.60
2022-08-22T01:57:08.212Z,17.60
2022-08-22T01:59:42.527Z,17.60
2022-08-22T02:02:42.725Z,17.60
2022-08-22T02:05:23.183Z,17.70
2022-08-22T02:08:00.404Z,17.70
2022-08-22T02:10:44.643Z,17.70
2022-08-22T02:13:28.768Z,17.60
2022-08-22T02:16:09.652Z,17.60
2022-08-22T02:19:21.084Z,17.60
2022-08-22T02:21:55.991Z,17.60
2022-08-22T02:24:35.980Z,17.60
2022-08-22T02:27:16.987Z,17.60
2022-08-22T02:29:53.638Z,17.60
2022-08-22T02:32:29.946Z,17.60
2022-08-22T02:35:06.071Z,17.60
2022-08-22T02:37:42.155Z,17.50
2022-08-22T02:40:18.194Z,17.50
2022-08-22T02:42:56.408Z,17.50
2022-08-22T02:45:32.188Z,17.60
2022-08-22T02:48:06.717Z,17.50
2022-08-22T02:50:42.291Z,17.50
2022-08-22T02:53:16.075Z,17.50
2022-08-22T02:55:53.406Z,17.50
2022-08-22T02:58:30.207Z,17.50
2022-08-22T03:01:21.986Z,17.50
2022-08-22T03:03:51.651Z,17.50
2022-08-22T03:06:40.569Z,17.50
2022-08-22T03:09:24.614Z,17.50
2022-08-22T03:12:14.423Z,17.50
2022-08-22T03:14:50.970Z,17.50
2022-08-22T03:17:25.114Z,17.50
2022-08-22T03:20:00.629Z,17.50
2022-08-22T03:22:37.532Z,17.50
2022-08-22T03:25:13.963Z,17.50
2022-08-22T03:27:49.907Z,17.40
2022-08-22T03:30:21.326Z,17.40
2022-08-22T03:32:53.693Z,17.40
2022-08-22T03:35:35.148Z,17.40
2022-08-22T03:38:25.912Z,17.40
2022-08-22T03:41:18.367Z,17.40
2022-08-22T03:44:36.880Z,17.40
2022-08-22T03:47:45.561Z,17.40
2022-08-22T03:50:48.885Z,17.40
2022-08-22T03:53:38.791Z,17.30
2022-08-22T03:56:26.947Z,17.30
2022-08-22T03:59:24.679Z,17.30
2022-08-22T04:02:31.497Z,17.30
2022-08-22T04:05:56.819Z,17.30
2022-08-22T04:08:56.014Z,17.30
2022-08-22T04:11:44.595Z,17.30
2022-08-22T04:14:54.887Z,17.30
2022-08-22T04:17:36.856Z,17.30
2022-08-22T04:20:21.891Z,17.30
2022-08-22T04:23:05.158Z,17.30
2022-08-22T04:25:38.821Z,17.30
2022-08-22T04:28:12.942Z,17.30
2022-08-22T04:30:46.569Z,17.30
2022-08-22T04:33:22.438Z,17.30
2022-08-22T04:36:01.676Z,17.30
2022-08-22T04:38:34.974Z,17.30
2022-08-22T04:41:09.166Z,17.30
2022-08-22T04:43:42.713Z,17.40
2022-08-22T04:46:16.776Z,17.40
2022-08-22T04:48:54.490Z,17.40
2022-08-22T04:51:27.927Z,17.30
2022-08-22T04:54:15.471Z,17.30
2022-08-22T04:56:52.176Z,17.30
2022-08-22T04:59:21.295Z,17.30
2022-08-22T05:01:59.249Z,17.40
2022-08-22T05:04:31.373Z,17.40
2022-08-22T05:07:08.756Z,17.40
2022-08-22T05:09:43.204Z,17.50
2022-08-22T05:12:21.056Z,17.50
2022-08-22T05:14:54.487Z,17.50
2022-08-22T05:17:27.211Z,17.50
2022-08-22T05:20:01.754Z,17.50
2022-08-22T05:22:33.758Z,17.50
2022-08-22T05:25:07.083Z,17.50
2022-08-22T05:27:41.843Z,17.50
2022-08-22T05:30:16.125Z,17.50
2022-08-22T05:32:51.768Z,17.50
2022-08-22T05:35:31.526Z,17.50
2022-08-22T05:38:00.363Z,17.50
2022-08-22T05:40:31.327Z,17.60
2022-08-22T05:43:00.184Z,17.70
2022-08-22T05:45:30.256Z,17.70
2022-08-22T05:48:04.736Z,17.70
2022-08-22T05:50:40.187Z,17.70
2022-08-22T05:53:14.453Z,17.80
2022-08-22T05:55:56.241Z,17.90
2022-08-22T05:58:42.793Z,17.90
2022-08-22T06:01:21.737Z,18.00
2022-08-22T06:03:59.529Z,18.00
2022-08-22T06:06:33.275Z,18.10
2022-08-22T06:09:05.893Z,18.10
2022-08-22T06:11:41.920Z,18.20
2022-08-22T06:14:29.102Z,18.30
2022-08-22T06:17:04.152Z,18.30
2022-08-22T06:19:36.938Z,18.40
2022-08-22T06:22:07.475Z,18.50
2022-08-22T06:24:38.524Z,18.60
2022-08-22T06:27:11.249Z,18.70
2022-08-22T06:29:42.831Z,18.80
2022-08-22T06:32:15.172Z,18.90
2022-08-22T06:34:46.605Z,19.00
2022-08-22T06:37:21.059Z,19.00
2022-08-22T06:39:53.213Z,19.00
2022-08-22T06:42:25.552Z,19.00
2022-08-22T06:44:58.472Z,19.00
2022-08-22T06:47:30.826Z,19.00
2022-08-22T06:50:02.638Z,19.00
2022-08-22T06:52:36.126Z,19.00
2022-08-22T06:55:09.156Z,19.00
2022-08-22T06:57:43.506Z,18.90
2022-08-22T07:00:16.500Z,18.90
2022-08-22T07:02:47.758Z,18.90
2022-08-22T07:05:22.213Z,18.90
2022-08-22T07:07:53.148Z,19.00
2022-08-22T07:11:01.337Z,19.00
2022-08-22T07:13:33.746Z,19.00
2022-08-22T07:16:09.996Z,19.10
2022-08-22T07:18:49.141Z,19.20
2022-08-22T07:21:26.204Z,19.30
2022-08-22T07:24:01.029Z,19.40
2022-08-22T07:26:35.139Z,19.40
2022-08-22T07:29:11.461Z,19.40
2022-08-22T07:31:49.039Z,19.50
2022-08-22T07:34:35.923Z,19.50
2022-08-22T07:37:08.451Z,19.60
2022-08-22T07:39:46.326Z,19.60
2022-08-22T07:42:18.967Z,19.60
2022-08-22T07:45:03.608Z,19.70
2022-08-22T07:47:49.670Z,19.60
2022-08-22T07:50:25.631Z,19.70
2022-08-22T07:52:59.208Z,19.70
2022-08-22T07:55:29.389Z,19.70
2022-08-22T07:58:01.776Z,19.80
2022-08-22T08:00:34.454Z,19.80
2022-08-22T08:03:05.807Z,19.80
2022-08-22T08:05:38.155Z,19.90
2022-08-22T08:08:10.121Z,20.00
2022-08-22T08:10:46.182Z,20.10
2022-08-22T08:13:24.721Z,20.20
2022-08-22T08:15:53.832Z,20.30
2022-08-22T08:18:26.132Z,20.50
2022-08-22T08:20:58.349Z,20.60
2022-08-22T08:23:29.474Z,20.80
2022-08-22T08:26:07.773Z,20.90
2022-08-22T08:28:42.370Z,21.20
2022-08-22T08:31:17.231Z,21.50
2022-08-22T08:33:48.691Z,21.80
2022-08-22T08:36:36.097Z,22.20
2022-08-22T08:39:15.942Z,22.60
2022-08-22T08:42:15.684Z,23.00
2022-08-22T08:45:22.243Z,23.30
2022-08-22T08:48:07.879Z,23.90
2022-08-22T08:50:59.544Z,24.00
2022-08-22T08:54:21.515Z,24.00
2022-08-22T08:57:04.848Z,24.10
2022-08-22T08:59:46.009Z,24.10
2022-08-22T09:02:31.984Z,24.40
2022-08-22T09:05:48.076Z,25.00
2022-08-22T09:08:42.259Z,25.40
2022-08-22T09:11:48.045Z,25.20
2022-08-22T09:14:38.291Z,25.00
2022-08-22T09:17:31.970Z,25.00
2022-08-22T09:20:46.556Z,24.80
2022-08-22T09:23:53.285Z,24.90
2022-08-22T09:26:30.444Z,25.20
2022-08-22T09:29:08.538Z,25.30
2022-08-22T09:31:51.912Z,25.50
2022-08-22T09:34:28.367Z,25.70
2022-08-22T09:37:14.150Z,26.00
2022-08-22T09:39:52.060Z,26.40
2022-08-22T09:42:25.556Z,27.00
2022-08-22T09:45:20.628Z,27.20
2022-08-22T09:48:06.363Z,27.10
2022-08-22T09:50:52.686Z,27.10
2022-08-22T09:53:47.692Z,27.30
2022-08-22T09:56:26.134Z,27.30
2022-08-22T09:59:02.977Z,27.10
2022-08-22T10:01:42.272Z,27.40
2022-08-22T10:04:42.129Z,27.90
2022-08-22T10:07:41.853Z,28.10
2022-08-22T10:10:35.608Z,28.70
2022-08-22T10:13:16.691Z,29.10
2022-08-22T10:15:52.505Z,29.50
2022-08-22T10:18:31.254Z,29.80
2022-08-22T10:21:10.367Z,29.90
2022-08-22T10:23:45.845Z,29.90
2022-08-22T10:26:29.452Z,30.10
2022-08-22T10:29:08.976Z,30.50
2022-08-22T10:31:58.347Z,30.50
2022-08-22T10:34:31.906Z,30.60
2022-08-22T10:37:11.735Z,30.80
2022-08-22T10:39:48.547Z,30.50
2022-08-22T10:42:28.328Z,30.80
2022-08-22T10:45:23.607Z,30.30
2022-08-22T10:48:36.698Z,30.20
2022-08-22T10:51:16.396Z,29.50
2022-08-22T10:54:02.573Z,29.60
2022-08-22T10:56:38.860Z,29.30
2022-08-22T10:59:27.223Z,28.90
2022-08-22T11:02:08.916Z,28.50
2022-08-22T11:04:58.860Z,28.20
2022-08-22T11:07:48.688Z,28.20
2022-08-22T11:10:28.155Z,28.20
2022-08-22T11:13:13.571Z,28.40
2022-08-22T11:16:01.320Z,28.70
2022-08-22T11:18:57.848Z,28.90
2022-08-22T11:21:43.048Z,29.10
2022-08-22T11:24:53.983Z,29.50
2022-08-22T11:27:39.552Z,29.60
2022-08-22T11:30:20.541Z,30.00
2022-08-22T11:33:16.824Z,30.00
2022-08-22T11:35:53.122Z,29.90
2022-08-22T11:38:36.194Z,29.70
2022-08-22T11:41:11.168Z,29.40
2022-08-22T11:43:49.950Z,29.80
2022-08-22T11:46:28.491Z,29.50
2022-08-22T11:49:17.061Z,29.50
2022-08-22T11:52:11.207Z,29.50
2022-08-22T11:55:07.112Z,29.50
2022-08-22T11:57:39.185Z,29.70
2022-08-22T12:00:23.703Z,30.40
2022-08-22T12:03:33.032Z,30.60
2022-08-22T12:06:09.799Z,30.40
2022-08-22T12:09:14.120Z,30.40
2022-08-22T12:11:59.368Z,30.20
2022-08-22T12:14:35.337Z,29.80
2022-08-22T12:17:55.916Z,30.20
2022-08-22T12:20:54.310Z,30.40
2022-08-22T12:23:52.850Z,30.20
2022-08-22T12:26:31.910Z,29.90
2022-08-22T12:29:15.635Z,30.10
2022-08-22T12:32:20.624Z,30.00
2022-08-22T12:35:13.855Z,29.90
2022-08-22T12:37:52.667Z,30.10
2022-08-22T12:40:37.821Z,30.10
2022-08-22T12:43:42.661Z,30.20
2022-08-22T12:46:18.968Z,30.10
2022-08-22T12:49:07.354Z,29.70
2022-08-22T12:51:43.546Z,29.90
2022-08-22T12:54:47.637Z,29.90
2022-08-22T12:57:26.409Z,29.90
2022-08-22T13:00:01.866Z,30.00
2022-08-22T13:02:34.249Z,30.00
2022-08-22T13:05:10.983Z,29.80
2022-08-22T13:07:42.678Z,29.90
2022-08-22T13:10:39.268Z,29.60
2022-08-22T13:13:13.371Z,29.80
2022-08-22T13:15:53.517Z,29.90
2022-08-22T13:18:29.923Z,29.70
2022-08-22T13:21:02.956Z,29.60
2022-08-22T13:23:39.830Z,29.30
2022-08-22T13:26:31.714Z,29.00
2022-08-22T13:29:25.128Z,28.90
2022-08-22T13:32:00.032Z,29.10
2022-08-22T13:34:39.630Z,29.40
2022-08-22T13:37:15.577Z,29.70
2022-08-22T13:39:49.189Z,29.90
2022-08-22T13:42:30.510Z,30.10
2022-08-22T13:45:04.886Z,30.20
2022-08-22T13:47:39.304Z,30.60
2022-08-22T13:50:14.136Z,30.60
2022-08-22T13:52:52.485Z,30.30
2022-08-22T13:55:30.356Z,30.20
2022-08-22T13:58:07.553Z,30.10
2022-08-22T14:01:04.129Z,30.20
2022-08-22T14:03:41.045Z,30.70
2022-08-22T14:06:36.857Z,30.70
2022-08-22T14:09:17.344Z,30.50
2022-08-22T14:12:11.941Z,30.30
2022-08-22T14:14:45.845Z,30.20
2022-08-22T14:17:21.354Z,30.50
2022-08-22T14:20:01.521Z,30.40
2022-08-22T14:22:35.342Z,30.10
2022-08-22T14:25:07.710Z,30.10
2022-08-22T14:27:40.368Z,30.20
2022-08-22T14:30:17.140Z,30.40
2022-08-22T14:32:52.124Z,30.40
2022-08-22T14:35:34.822Z,30.50
2022-08-22T14:38:20.658Z,30.50
2022-08-22T14:41:03.294Z,30.40
2022-08-22T14:43:58.189Z,30.10
2022-08-22T14:46:32.945Z,30.00
2022-08-22T14:49:29.628Z,30.10
2022-08-22T14:52:03.660Z,30.20
2022-08-22T14:54:33.856Z,30.30
2022-08-22T14:57:10.355Z,30.20
2022-08-22T14:59:50.573Z,30.10
2022-08-22T15:02:29.050Z,30.00
2022-08-22T15:05:01.814Z,30.00
2022-08-22T15:07:33.739Z,29.90
2022-08-22T15:10:06.544Z,30.00
2022-08-22T15:12:46.552Z,30.40
2022-08-22T15:15:32.765Z,30.80
2022-08-22T15:18:33.718Z,30.80
2022-08-22T15:21:08.554Z,30.60
2022-08-22T15:23:45.158Z,30.40
2022-08-22T15:26:25.425Z,30.20
2022-08-22T15:29:09.176Z,30.10
2022-08-22T15:31:39.666Z,30.00
2022-08-22T15:34:18.061Z,29.70
2022-08-22T15:37:32.320Z,29.60
2022-08-22T15:40:12.001Z,29.40
2022-08-22T15:42:44.512Z,29.30
2022-08-22T15:45:34.065Z,29.20
2022-08-22T15:48:05.700Z,29.10
2022-08-22T15:50:41.889Z,29.00
2022-08-22T15:53:20.209Z,29.00
2022-08-22T15:56:24.548Z,29.00
2022-08-22T15:59:10.736Z,29.00
2022-08-22T16:01:45.116Z,29.00
2022-08-22T16:04:53.743Z,29.00
2022-08-22T16:07:34.108Z,28.90
2022-08-22T16:10:07.629Z,28.80
2022-08-22T16:12:39.830Z,28.60
2022-08-22T16:15:30.014Z,28.60
2022-08-22T16:17:59.385Z,28.50
2022-08-22T16:20:56.695Z,28.40
2022-08-22T16:23:26.770Z,28.30
2022-08-22T16:26:12.404Z,28.30
2022-08-22T16:28:58.197Z,28.30
2022-08-22T16:31:32.477Z,28.10
2022-08-22T16:34:22.427Z,28.00
2022-08-22T16:36:52.320Z,28.00
2022-08-22T16:39:38.679Z,28.00
2022-08-22T16:42:29.729Z,28.00
2022-08-22T16:45:12.572Z,28.00
2022-08-22T16:47:56.682Z,28.00
2022-08-22T16:50:33.154Z,27.90
2022-08-22T16:53:08.194Z,27.80
2022-08-22T16:56:03.943Z,27.70
2022-08-22T16:58:57.932Z,28.00
2022-08-22T17:01:48.559Z,28.20
2022-08-22T17:04:25.027Z,28.40
2022-08-22T17:07:07.253Z,28.60
2022-08-22T17:09:49.720Z,28.90
2022-08-22T17:12:29.526Z,29.00
2022-08-22T17:15:08.104Z,28.90
2022-08-22T17:17:48.112Z,28.80
2022-08-22T17:20:29.073Z,28.60
2022-08-22T17:23:12.337Z,28.70
2022-08-22T17:25:53.505Z,28.80
2022-08-22T17:28:36.283Z,29.10
2022-08-22T17:31:17.174Z,29.30
2022-08-22T17:34:15.419Z,29.50
2022-08-22T17:37:02.425Z,29.50
2022-08-22T17:39:53.001Z,29.50
2022-08-22T17:42:49.074Z,29.40
2022-08-22T17:45:28.077Z,29.40
2022-08-22T17:48:03.527Z,29.30
2022-08-22T17:50:40.286Z,29.00
2022-08-22T17:53:16.166Z,28.70
2022-08-22T17:55:57.904Z,28.60
2022-08-22T17:58:37.389Z,28.30
2022-08-22T18:01:22.615Z,28.20
2022-08-22T18:04:00.480Z,28.10
2022-08-22T18:06:34.017Z,28.00
2022-08-22T18:09:14.319Z,28.00
2022-08-22T18:11:49.559Z,28.00
2022-08-22T18:14:29.846Z,27.90
2022-08-22T18:17:00.966Z,27.70
2022-08-22T18:19:44.594Z,27.60
2022-08-22T18:22:22.739Z,27.50
2022-08-22T18:24:57.054Z,27.30
2022-08-22T18:27:34.837Z,27.10
2022-08-22T18:30:08.759Z,27.00
2022-08-22T18:32:43.844Z,26.90
2022-08-22T18:35:19.827Z,26.80
2022-08-22T18:37:58.966Z,26.60
2022-08-22T18:40:33.138Z,26.40
2022-08-22T18:43:13.331Z,26.20
2022-08-22T18:46:04.102Z,26.10
2022-08-22T18:48:59.298Z,25.90
2022-08-22T18:51:29.986Z,25.80
2022-08-22T18:54:19.569Z,25.70
2022-08-22T18:56:54.404Z,25.60
2022-08-22T18:59:38.155Z,25.40
2022-08-22T19:02:23.311Z,25.30
2022-08-22T19:05:16.604Z,25.20
2022-08-22T19:08:10.877Z,24.90
2022-08-22T19:10:49.700Z,24.80
2022-08-22T19:13:41.998Z,24.60
2022-08-22T19:16:26.983Z,24.40
2022-08-22T19:18:59.277Z,24.20
2022-08-22T19:21:48.643Z,24.10
2022-08-22T19:24:58.149Z,23.90
2022-08-22T19:27:31.258Z,23.80
2022-08-22T19:30:02.823Z,23.70
2022-08-22T19:33:10.729Z,23.60
2022-08-22T19:35:45.883Z,23.40
2022-08-22T19:38:52.515Z,23.30
2022-08-22T19:41:40.872Z,23.20
2022-08-22T19:44:11.999Z,23.10
2022-08-22T19:46:43.508Z,23.00
2022-08-22T19:49:28.379Z,22.90
2022-08-22T19:52:12.258Z,22.90
2022-08-22T19:54:51.540Z,22.80
2022-08-22T19:57:25.865Z,22.70
2022-08-22T20:00:02.881Z,22.70
2022-08-22T20:02:38.499Z,22.70
2022-08-22T20:05:27.633Z,22.50
2022-08-22T20:08:19.809Z,22.40
2022-08-22T20:11:05.376Z,22.30
2022-08-22T20:13:37.349Z,22.20
2022-08-22T20:16:17.194Z,22.10
2022-08-22T20:19:06.080Z,22.10
2022-08-22T20:22:00.474Z,22.00
2022-08-22T20:24:40.256Z,21.90
2022-08-22T20:27:17.886Z,21.90
2022-08-22T20:29:54.418Z,21.80
2022-08-22T20:32:25.967Z,21.80
2022-08-22T20:34:57.153Z,21.80
2022-08-22T20:37:45.379Z,21.70
2022-08-22T20:40:55.019Z,21.70
2022-08-22T20:43:18.592Z,21.60
2022-08-22T20:46:00.210Z,21.50
2022-08-22T20:48:36.502Z,21.40
2022-08-22T20:51:06.684Z,21.30
2022-08-22T20:53:35.632Z,21.30
2022-08-22T20:56:07.097Z,21.20
2022-08-22T20:58:39.990Z,21.10
2022-08-22T21:01:11.370Z,21.10
2022-08-22T21:03:44.438Z,21.00
2022-08-22T21:06:15.469Z,20.90
2022-08-22T21:08:45.072Z,20.90
2022-08-22T21:11:40.471Z,20.90
2022-08-22T21:14:24.701Z,20.80
2022-08-22T21:16:53.551Z,20.80
2022-08-22T21:19:28.558Z,20.80
2022-08-22T21:22:12.688Z,20.70
2022-08-22T21:24:41.317Z,20.70
2022-08-22T21:27:09.998Z,20.70
2022-08-22T21:29:47.468Z,20.70
2022-08-22T21:32:26.747Z,20.60
2022-08-22T21:34:55.437Z,20.70
2022-08-22T21:37:29.848Z,20.60
2022-08-22T21:40:07.931Z,20.70
2022-08-22T21:42:44.941Z,20.60
2022-08-22T21:45:28.615Z,20.60
2022-08-22T21:47:57.255Z,20.50
2022-08-22T21:50:38.262Z,20.50
2022-08-22T21:53:10.353Z,20.40
2022-08-22T21:55:43.157Z,20.30
2022-08-22T21:58:35.572Z,20.20
2022-08-22T22:01:30.279Z,20.20
2022-08-22T22:03:59.795Z,20.10
2022-08-22T22:06:28.637Z,20.10
2022-08-22T22:08:57.137Z,20.00
2022-08-22T22:11:25.513Z,20.00
2022-08-22T22:13:54.403Z,19.90
2022-08-22T22:16:28.293Z,20.00
2022-08-22T22:18:57.185Z,19.90
2022-08-22T22:21:25.474Z,19.90
2022-08-22T22:23:54.067Z,19.80
2022-08-22T22:26:28.675Z,19.80
2022-08-22T22:28:58.915Z,19.70
2022-08-22T22:31:28.868Z,19.70
2022-08-22T22:33:58.894Z,19.60
2022-08-22T22:36:28.664Z,19.60
2022-08-22T22:38:57.140Z,19.60
2022-08-22T22:41:26.119Z,19.50
2022-08-22T22:43:55.169Z,19.50
2022-08-22T22:46:26.885Z,19.40
2022-08-22T22:48:56.758Z,19.40
2022-08-22T22:51:25.918Z,19.40
2022-08-22T22:53:54.166Z,19.30
2022-08-22T22:56:24.933Z,19.30
2022-08-22T22:58:58.970Z,19.20
2022-08-22T23:01:29.072Z,19.20
2022-08-22T23:04:39.007Z,19.10
2022-08-22T23:07:08.304Z,19.00
2022-08-22T23:09:38.427Z,19.00
2022-08-22T23:12:13.595Z,18.90
2022-08-22T23:14:42.291Z,18.80
2022-08-22T23:17:11.042Z,18.80
2022-08-22T23:19:41.538Z,18.80
2022-08-22T23:22:12.765Z,18.70
2022-08-22T23:24:41.320Z,18.70
2022-08-22T23:27:11.324Z,18.70
2022-08-22T23:29:41.908Z,18.60
2022-08-22T23:32:11.565Z,18.60
2022-08-22T23:34:45.995Z,18.70
2022-08-22T23:37:16.404Z,18.60
2022-08-22T23:39:45.083Z,18.60
2022-08-22T23:42:14.627Z,18.60
2022-08-22T23:44:45.346Z,18.60
2022-08-22T23:47:15.023Z,18.50
2022-08-22T23:49:45.243Z,18.50
2022-08-22T23:52:15.092Z,18.50
2022-08-22T23:54:43.429Z,18.50
2022-08-22T23:57:12.789Z,18.50
2022-08-22T23:59:47.877Z,18.40
